Bentley, Illinois
Current Conditions -  °F | °C
As of 4:35 AM on Thursday 23 Oct 2014 (Local Time) from KMQB Reporting Station
Clear Clear  
Wind Chill: 33°   Ceiling: Unl
Heat Index: 38°   Visibility: 10mi
Dew Point: 36°   Wind: 7mph
Humidity: 91%   Direction: 160°SSE
Pressure: 30.19"   Gusts: NA
Location:  40.4155°N, 91.0269°W
Report Text: KMQB 230935Z AUTO 16006KT 10SM CLR 04/02 A3019 RMK AO2 T00350021
Loading
Personal Weather Stations






























Interactive Weather Map
Tropical Storm Tracking
New forecast layout! Learn more

10-Day Weather Forecast

Advertisements
Track Severe Weather on mobile